Time;durP1;ratioP1;P1;durP2;ratioP2;P2;SDS_P1;SDS_P2;PMS_P1;PMS_P2;Temp;Humidity;BMP_temperature;BMP_pressure;BME280_temperature;BME280_humidity;BME280_pressure;Samples;Min_cycle;Max_cycle;Signal;HPM_P1;HPM_P2
2021/10/17 00:00:18;;;;;;;7.85;5.07;;;10.90;99.90;;;;;;4916444;29;20369;-77
2021/10/17 00:02:45;;;;;;;8.48;5.22;;;10.90;99.90;;;;;;4908517;29;20043;-77
2021/10/17 00:05:12;;;;;;;10.10;5.57;;;10.90;99.90;;;;;;4917361;29;20020;-77
2021/10/17 00:07:38;;;;;;;8.40;5.25;;;10.90;99.90;;;;;;4915912;29;20035;-76
2021/10/17 00:10:08;;;;;;;9.20;5.03;;;10.90;99.90;;;;;;4916502;29;20028;-74
2021/10/17 00:12:34;;;;;;;7.82;4.95;;;10.90;99.90;;;;;;4915912;29;20039;-77
2021/10/17 00:15:00;;;;;;;9.80;4.70;;;10.90;99.90;;;;;;4917343;29;20020;-75
2021/10/17 00:17:25;;;;;;;6.22;4.88;;;10.90;99.90;;;;;;4916577;29;20027;-75
2021/10/17 00:19:51;;;;;;;6.57;4.57;;;10.90;99.90;;;;;;4918114;29;20030;-76
2021/10/17 00:22:17;;;;;;;7.25;4.05;;;10.90;99.90;;;;;;4916067;29;20095;-76
2021/10/17 00:24:43;;;;;;;7.80;4.13;;;10.90;99.90;;;;;;4917900;29;20114;-76
2021/10/17 00:27:08;;;;;;;9.30;4.70;;;10.90;99.90;;;;;;4916553;29;20028;-76
2021/10/17 00:29:34;;;;;;;7.03;4.53;;;10.90;99.90;;;;;;4915748;29;20021;-76
2021/10/17 00:32:00;;;;;;;9.23;5.57;;;10.90;99.90;;;;;;4917843;29;20035;-77
2021/10/17 00:34:27;;;;;;;6.47;4.65;;;10.90;99.90;;;;;;4931325;29;20439;-76
2021/10/17 00:36:52;;;;;;;9.85;4.43;;;10.80;99.90;;;;;;4916895;29;20123;-76
2021/10/17 00:39:18;;;;;;;8.00;4.88;;;10.90;99.90;;;;;;4917595;29;20450;-76
2021/10/17 00:41:46;;;;;;;8.70;4.80;;;10.90;99.90;;;;;;4914883;29;20048;-76
2021/10/17 00:44:19;;;;;;;10.98;5.50;;;10.90;99.90;;;;;;4916149;29;20024;-76
2021/10/17 00:46:44;;;;;;;10.57;4.57;;;10.90;99.90;;;;;;4917405;29;20067;-76
2021/10/17 00:49:10;;;;;;;7.07;4.35;;;10.90;99.90;;;;;;4915642;29;20052;-75
2021/10/17 00:51:35;;;;;;;9.35;4.47;;;10.90;99.90;;;;;;4915971;29;20391;-74
2021/10/17 00:54:01;;;;;;;8.80;4.95;;;10.90;99.90;;;;;;4917313;29;20385;-77
2021/10/17 00:56:26;;;;;;;9.77;5.20;;;10.90;99.90;;;;;;4916540;29;20020;-76
2021/10/17 00:58:52;;;;;;;8.15;4.78;;;10.80;99.90;;;;;;4915943;29;20441;-76
2021/10/17 01:01:18;;;;;;;8.57;4.50;;;10.90;99.90;;;;;;4915719;29;20552;-77
2021/10/17 01:03:43;;;;;;;8.82;4.68;;;10.80;99.90;;;;;;4916290;29;20016;-77
2021/10/17 01:06:12;;;;;;;7.15;5.03;;;10.90;99.90;;;;;;4916019;29;20032;-77
2021/10/17 01:08:37;;;;;;;9.15;5.50;;;10.90;99.90;;;;;;4916761;29;20027;-76
2021/10/17 01:11:03;;;;;;;7.72;5.00;;;10.80;99.90;;;;;;4916639;29;20032;-75
2021/10/17 01:13:30;;;;;;;7.35;4.28;;;10.80;99.90;;;;;;4915417;29;20052;-75
2021/10/17 01:15:57;;;;;;;8.82;5.07;;;10.80;99.90;;;;;;4915976;29;20465;-74
2021/10/17 01:18:25;;;;;;;5.47;4.25;;;10.80;99.90;;;;;;4916463;29;20043;-76
2021/10/17 01:20:51;;;;;;;6.85;4.13;;;10.80;99.90;;;;;;4915630;29;20079;-77
2021/10/17 01:23:18;;;;;;;6.22;3.90;;;10.90;99.90;;;;;;4916704;29;20028;-74
2021/10/17 01:25:44;;;;;;;7.97;4.22;;;10.80;99.90;;;;;;4914763;29;20028;-76
2021/10/17 01:28:10;;;;;;;6.57;4.20;;;10.80;99.90;;;;;;4916831;29;20080;-77
2021/10/17 01:30:35;;;;;;;6.95;4.32;;;10.80;99.90;;;;;;4915954;29;20027;-77
2021/10/17 01:33:01;;;;;;;6.47;4.07;;;10.80;99.90;;;;;;4916667;29;20425;-77
2021/10/17 01:35:26;;;;;;;7.25;4.05;;;10.80;99.90;;;;;;4916457;29;20370;-77
2021/10/17 01:37:52;;;;;;;5.78;3.85;;;10.80;99.90;;;;;;4916115;29;20422;-77
2021/10/17 01:40:18;;;;;;;8.00;4.63;;;10.80;99.90;;;;;;4915216;29;20054;-77
2021/10/17 01:42:44;;;;;;;9.32;4.15;;;10.80;99.90;;;;;;4916248;29;20052;-76
2021/10/17 01:45:11;;;;;;;7.68;4.90;;;10.80;99.90;;;;;;4916011;29;20029;-76
2021/10/17 01:47:37;;;;;;;9.98;4.63;;;10.80;99.90;;;;;;4916286;29;20036;-76
2021/10/17 01:50:04;;;;;;;8.52;4.50;;;10.80;99.90;;;;;;4916564;29;20445;-77
2021/10/17 01:52:29;;;;;;;6.60;4.38;;;10.80;99.90;;;;;;4914336;29;20425;-74
2021/10/17 01:54:55;;;;;;;7.65;4.47;;;10.80;99.90;;;;;;4915049;29;20024;-76
2021/10/17 01:57:21;;;;;;;8.05;4.57;;;10.80;99.90;;;;;;4916485;29;20036;-74
2021/10/17 01:59:46;;;;;;;7.32;4.72;;;10.80;99.90;;;;;;4915471;29;20469;-74
2021/10/17 02:02:12;;;;;;;7.00;4.10;;;10.80;99.90;;;;;;4914993;29;20043;-74
2021/10/17 02:04:37;;;;;;;7.13;4.05;;;10.70;99.90;;;;;;4915994;29;20406;-76
2021/10/17 02:07:03;;;;;;;6.68;4.28;;;10.80;99.90;;;;;;4914074;29;20039;-76
2021/10/17 02:09:28;;;;;;;5.35;3.88;;;10.70;99.90;;;;;;4915746;29;20028;-75
2021/10/17 02:11:54;;;;;;;7.45;4.15;;;10.70;99.90;;;;;;4914863;29;20059;-75
2021/10/17 02:14:22;;;;;;;7.18;4.22;;;10.70;99.90;;;;;;4915181;29;20048;-75
2021/10/17 02:16:48;;;;;;;7.63;4.00;;;10.70;99.90;;;;;;4915836;29;20036;-75
2021/10/17 02:19:13;;;;;;;8.15;4.25;;;10.70;99.90;;;;;;4914899;29;20499;-76
2021/10/17 02:21:39;;;;;;;9.25;4.15;;;10.70;99.90;;;;;;4913501;29;20544;-76
2021/10/17 02:24:05;;;;;;;8.80;4.70;;;10.70;99.90;;;;;;4915588;29;20115;-75
2021/10/17 02:26:31;;;;;;;8.75;4.68;;;10.70;99.90;;;;;;4915763;29;20027;-74
2021/10/17 02:28:56;;;;;;;6.93;4.05;;;10.70;99.90;;;;;;4913998;29;20020;-75
2021/10/17 02:31:22;;;;;;;7.53;4.13;;;10.70;99.90;;;;;;4915943;29;20032;-76
2021/10/17 02:33:48;;;;;;;7.05;4.40;;;10.70;99.90;;;;;;4914093;29;20032;-75
2021/10/17 02:36:13;;;;;;;7.47;4.18;;;10.70;99.90;;;;;;4915900;29;20035;-76
2021/10/17 02:38:39;;;;;;;9.38;4.30;;;10.60;99.90;;;;;;4914197;29;20111;-76
2021/10/17 02:41:04;;;;;;;6.75;4.65;;;10.60;99.90;;;;;;4914976;29;20036;-77
2021/10/17 02:43:30;;;;;;;9.25;4.97;;;10.70;99.90;;;;;;4914119;29;20024;-74
2021/10/17 02:45:55;;;;;;;15.98;5.22;;;10.60;99.90;;;;;;4916078;29;20032;-76
2021/10/17 02:48:21;;;;;;;8.95;4.53;;;10.70;99.90;;;;;;4915312;29;20028;-75
2021/10/17 02:50:47;;;;;;;6.90;4.13;;;10.60;99.90;;;;;;4915644;29;20473;-76
2021/10/17 02:53:12;;;;;;;9.48;4.32;;;10.70;99.90;;;;;;4915664;29;20115;-75
2021/10/17 02:55:38;;;;;;;5.28;3.83;;;10.70;99.90;;;;;;4913453;29;20056;-76
2021/10/17 02:58:03;;;;;;;7.05;4.00;;;10.60;99.90;;;;;;4915637;29;20738;-75
2021/10/17 03:00:29;;;;;;;5.63;4.05;;;10.60;99.90;;;;;;4915519;29;20021;-76
2021/10/17 03:02:54;;;;;;;5.55;3.92;;;10.60;99.90;;;;;;4914986;29;20449;-75
2021/10/17 03:05:20;;;;;;;6.60;4.05;;;10.60;99.90;;;;;;4914384;29;20035;-76
2021/10/17 03:07:45;;;;;;;5.90;3.72;;;10.60;99.90;;;;;;4914193;29;20465;-76
2021/10/17 03:10:11;;;;;;;7.30;4.43;;;10.60;99.90;;;;;;4914849;29;20028;-76
2021/10/17 03:12:36;;;;;;;9.05;4.05;;;10.60;99.90;;;;;;4914958;29;20063;-76
2021/10/17 03:15:04;;;;;;;7.75;4.18;;;10.50;99.90;;;;;;4930314;29;20404;-76
2021/10/17 03:17:30;;;;;;;7.68;3.97;;;10.50;99.90;;;;;;4913556;29;20031;-76
2021/10/17 03:19:55;;;;;;;8.10;4.53;;;10.50;99.90;;;;;;4915490;29;20028;-76
2021/10/17 03:22:21;;;;;;;5.88;3.90;;;10.50;99.90;;;;;;4915412;29;20036;-77
2021/10/17 03:24:46;;;;;;;6.93;4.15;;;10.50;99.90;;;;;;4915989;29;20418;-76
2021/10/17 03:27:12;;;;;;;7.07;4.50;;;10.50;99.90;;;;;;4918973;29;20043;-77
2021/10/17 03:29:37;;;;;;;6.20;4.55;;;10.50;99.90;;;;;;4917373;29;20020;-77
2021/10/17 03:32:03;;;;;;;7.57;4.70;;;10.50;99.90;;;;;;4918302;29;20111;-77
2021/10/17 03:34:29;;;;;;;7.80;4.93;;;10.50;99.90;;;;;;4918435;29;20031;-76
2021/10/17 03:36:55;;;;;;;7.53;4.07;;;10.50;99.90;;;;;;4917733;29;20024;-76
2021/10/17 03:39:21;;;;;;;8.48;4.10;;;10.50;99.90;;;;;;4918285;29;20028;-74
2021/10/17 03:41:46;;;;;;;7.13;4.15;;;10.50;99.90;;;;;;4918535;29;20044;-75
2021/10/17 03:44:12;;;;;;;8.20;5.10;;;10.50;99.90;;;;;;4917616;29;20517;-76
2021/10/17 03:46:37;;;;;;;9.05;5.00;;;10.50;99.90;;;;;;4918164;29;20036;-74
2021/10/17 03:49:03;;;;;;;7.28;4.00;;;10.50;99.90;;;;;;4917154;29;20028;-73
2021/10/17 03:51:28;;;;;;;7.30;4.30;;;10.50;99.90;;;;;;4917607;29;20388;-74
2021/10/17 03:53:54;;;;;;;5.88;4.25;;;10.50;99.90;;;;;;4918499;29;20036;-74
2021/10/17 03:56:19;;;;;;;7.43;4.28;;;10.40;99.90;;;;;;4918538;29;20017;-75
2021/10/17 03:58:45;;;;;;;7.80;4.57;;;10.50;99.90;;;;;;4916302;29;20496;-75
2021/10/17 04:01:10;;;;;;;6.72;4.05;;;10.40;99.90;;;;;;4918677;29;20039;-76
2021/10/17 04:03:36;;;;;;;8.90;4.63;;;10.40;99.90;;;;;;4918051;29;20072;-77
2021/10/17 04:06:02;;;;;;;6.85;4.72;;;10.40;99.90;;;;;;4917923;29;20028;-74
2021/10/17 04:08:27;;;;;;;8.10;5.38;;;10.40;99.90;;;;;;4918153;29;20099;-77
2021/10/17 04:10:53;;;;;;;5.95;4.15;;;10.50;99.90;;;;;;4918373;29;20453;-74
2021/10/17 04:13:18;;;;;;;8.25;4.65;;;10.40;99.90;;;;;;4917048;29;20052;-75
2021/10/17 04:15:44;;;;;;;7.57;4.75;;;10.40;99.90;;;;;;4916704;29;20370;-77
2021/10/17 04:18:10;;;;;;;7.93;5.10;;;10.40;99.90;;;;;;4918111;29;20390;-76
2021/10/17 04:20:35;;;;;;;9.07;5.07;;;10.40;99.90;;;;;;4917180;29;20032;-75
2021/10/17 04:23:03;;;;;;;9.00;4.75;;;10.40;99.90;;;;;;4917697;29;20036;-77
2021/10/17 04:25:29;;;;;;;8.38;4.75;;;10.40;99.90;;;;;;4916531;29;20479;-76
2021/10/17 04:27:54;;;;;;;9.73;5.47;;;10.40;99.90;;;;;;4917494;29;20028;-76
2021/10/17 04:30:20;;;;;;;10.63;4.93;;;10.40;99.90;;;;;;4917865;29;20083;-76
2021/10/17 04:32:45;;;;;;;9.68;5.95;;;10.40;99.90;;;;;;4917673;29;20487;-77
2021/10/17 04:35:11;;;;;;;10.13;5.25;;;10.40;99.90;;;;;;4915510;29;20028;-76
2021/10/17 04:37:37;;;;;;;7.15;4.93;;;10.30;99.90;;;;;;4917527;29;20107;-76
2021/10/17 04:40:06;;;;;;;8.98;5.65;;;10.40;99.90;;;;;;4916436;29;20519;-75
2021/10/17 04:42:32;;;;;;;7.63;5.07;;;10.30;99.90;;;;;;4917309;29;20136;-76
2021/10/17 04:45:01;;;;;;;10.63;4.93;;;10.30;99.90;;;;;;4916388;29;20054;-76
2021/10/17 04:47:28;;;;;;;6.47;4.47;;;10.30;99.90;;;;;;4915611;29;20036;-75
2021/10/17 04:49:53;;;;;;;7.63;4.70;;;10.30;99.90;;;;;;4917587;29;20410;-75
2021/10/17 04:52:19;;;;;;;7.85;4.95;;;10.30;99.90;;;;;;4915962;29;20115;-76
2021/10/17 04:54:44;;;;;;;6.72;4.30;;;10.20;99.90;;;;;;4916647;29;20032;-75
2021/10/17 04:57:10;;;;;;;9.05;4.82;;;10.20;99.90;;;;;;4917467;29;20477;-75
2021/10/17 04:59:36;;;;;;;8.68;5.13;;;10.20;99.90;;;;;;4917049;29;20020;-77
2021/10/17 05:02:02;;;;;;;12.23;5.47;;;10.20;99.90;;;;;;4916977;29;20032;-77
2021/10/17 05:04:27;;;;;;;8.40;5.43;;;10.10;99.90;;;;;;4916796;29;20020;-75
2021/10/17 05:06:53;;;;;;;11.13;5.30;;;10.10;99.90;;;;;;4917366;29;20362;-78
2021/10/17 05:09:19;;;;;;;13.00;6.10;;;10.10;99.90;;;;;;4915465;29;20457;-77
2021/10/17 05:11:44;;;;;;;8.00;5.05;;;10.10;99.90;;;;;;4915510;29;20036;-77
2021/10/17 05:14:10;;;;;;;10.75;5.28;;;10.10;99.90;;;;;;4916784;29;20055;-78
2021/10/17 05:16:35;;;;;;;7.57;4.82;;;10.00;99.90;;;;;;4916082;29;20036;-77
2021/10/17 05:19:01;;;;;;;7.57;4.68;;;10.00;99.90;;;;;;4917049;29;20024;-78
2021/10/17 05:21:28;;;;;;;10.30;5.07;;;10.00;99.90;;;;;;4916526;29;20044;-78
2021/10/17 05:23:55;;;;;;;10.43;5.28;;;10.00;99.90;;;;;;4916173;29;20119;-76
2021/10/17 05:26:20;;;;;;;7.30;4.80;;;10.00;99.90;;;;;;4917014;29;20422;-77
2021/10/17 05:28:46;;;;;;;9.50;4.80;;;9.90;99.90;;;;;;4915468;29;20020;-76
2021/10/17 05:31:11;;;;;;;6.72;4.70;;;9.90;99.90;;;;;;4914846;29;20046;-77
2021/10/17 05:33:37;;;;;;;9.07;4.95;;;9.80;99.90;;;;;;4916353;29;20024;-75
2021/10/17 05:36:04;;;;;;;8.05;5.28;;;9.80;99.90;;;;;;4916797;29;20032;-75
2021/10/17 05:38:30;;;;;;;6.57;5.07;;;9.90;99.90;;;;;;4913949;29;20031;-74
2021/10/17 05:40:55;;;;;;;8.55;5.40;;;9.80;99.90;;;;;;4913574;29;20028;-74
2021/10/17 05:43:21;;;;;;;8.13;5.03;;;9.80;99.90;;;;;;4930840;29;20032;-73
2021/10/17 05:45:46;;;;;;;7.25;4.40;;;9.80;99.90;;;;;;4915749;29;20020;-74
2021/10/17 05:48:12;;;;;;;7.95;5.57;;;9.80;99.90;;;;;;4914149;29;20088;-74
2021/10/17 05:50:37;;;;;;;7.82;5.40;;;9.80;99.90;;;;;;4914910;29;20024;-74
2021/10/17 05:53:03;;;;;;;8.70;4.72;;;9.80;99.90;;;;;;4930277;29;20024;-74
2021/10/17 05:55:29;;;;;;;7.07;4.97;;;9.80;99.90;;;;;;4916169;29;20036;-74
2021/10/17 05:57:54;;;;;;;6.88;4.55;;;9.70;99.90;;;;;;4915729;29;20040;-74
2021/10/17 06:00:21;;;;;;;10.77;5.07;;;9.80;99.90;;;;;;4916261;29;20028;-75
2021/10/17 06:02:46;;;;;;;7.75;5.05;;;9.70;99.90;;;;;;4915987;29;20074;-74
2021/10/17 06:05:12;;;;;;;7.72;4.85;;;9.70;99.90;;;;;;4915706;29;20446;-74
2021/10/17 06:07:38;;;;;;;8.10;5.13;;;9.70;99.90;;;;;;4914707;29;20060;-74
2021/10/17 06:10:09;;;;;;;8.88;5.38;;;9.70;99.90;;;;;;4914765;29;20115;-75
2021/10/17 06:12:37;;;;;;;12.95;5.05;;;9.70;99.90;;;;;;4914005;29;20020;-75
2021/10/17 06:15:04;;;;;;;8.98;6.72;;;9.70;99.90;;;;;;4914346;29;20024;-74
2021/10/17 06:17:30;;;;;;;10.23;5.75;;;9.70;99.90;;;;;;4915713;29;20393;-74
2021/10/17 06:19:56;;;;;;;7.55;4.78;;;9.80;99.90;;;;;;4912467;29;20385;-74
2021/10/17 06:22:22;;;;;;;13.20;6.13;;;9.70;99.90;;;;;;4914914;29;20046;-76
2021/10/17 06:24:47;;;;;;;8.35;6.55;;;9.70;99.90;;;;;;4914593;29;20027;-79
2021/10/17 06:27:13;;;;;;;8.32;5.95;;;9.80;99.90;;;;;;4914234;29;20493;-75
2021/10/17 06:29:39;;;;;;;6.72;5.10;;;9.80;99.90;;;;;;4915790;29;20358;-77
2021/10/17 06:32:05;;;;;;;11.93;6.18;;;9.80;99.90;;;;;;4915894;29;20060;-82
2021/10/17 06:34:30;;;;;;;9.25;5.05;;;9.80;99.90;;;;;;4913275;29;20028;-83
2021/10/17 06:36:56;;;;;;;9.35;5.80;;;9.80;99.90;;;;;;4916161;29;20040;-79
2021/10/17 06:39:22;;;;;;;9.52;5.53;;;9.80;99.90;;;;;;4913692;29;20100;-78
2021/10/17 06:41:48;;;;;;;11.38;5.78;;;9.80;99.90;;;;;;4911291;29;20440;-75
2021/10/17 06:44:13;;;;;;;7.57;5.22;;;9.80;99.90;;;;;;4924273;29;20031;-75
2021/10/17 06:46:39;;;;;;;7.22;5.28;;;9.90;99.90;;;;;;4916900;29;20028;-75
2021/10/17 06:49:04;;;;;;;8.13;5.05;;;9.90;99.90;;;;;;4928790;29;20056;-76
2021/10/17 06:51:30;;;;;;;9.95;5.53;;;10.00;99.90;;;;;;4915684;29;20039;-76
2021/10/17 06:53:56;;;;;;;8.15;5.82;;;10.00;99.90;;;;;;4930149;29;20485;-76
2021/10/17 06:56:21;;;;;;;7.75;5.38;;;10.00;99.90;;;;;;4912030;29;20079;-76
2021/10/17 06:58:47;;;;;;;14.80;6.60;;;10.00;99.90;;;;;;4915698;29;20024;-76
2021/10/17 07:01:13;;;;;;;14.40;5.85;;;10.10;99.90;;;;;;4936599;29;20035;-76
2021/10/17 07:03:39;;;;;;;7.20;5.55;;;10.10;99.90;;;;;;4937997;29;20031;-74
2021/10/17 07:06:06;;;;;;;12.15;5.72;;;10.20;99.90;;;;;;4935530;28;20028;-75
2021/10/17 07:08:31;;;;;;;8.43;5.47;;;10.20;99.90;;;;;;4914963;29;20035;-76
2021/10/17 07:10:57;;;;;;;8.27;5.32;;;10.20;99.90;;;;;;4917404;29;20440;-75
2021/10/17 07:13:23;;;;;;;9.45;5.82;;;10.30;99.90;;;;;;4917995;29;20157;-75
2021/10/17 07:15:48;;;;;;;7.88;5.82;;;10.40;99.90;;;;;;4917710;29;20032;-74
2021/10/17 07:18:14;;;;;;;7.80;5.00;;;10.40;99.90;;;;;;4914374;29;20028;-75
2021/10/17 07:20:40;;;;;;;8.85;5.70;;;10.40;99.90;;;;;;4913124;29;20024;-77
2021/10/17 07:23:05;;;;;;;10.95;5.78;;;10.40;99.90;;;;;;4916127;29;20123;-77
2021/10/17 07:25:31;;;;;;;10.38;6.03;;;10.50;99.90;;;;;;4915540;29;20028;-75
2021/10/17 07:27:56;;;;;;;9.30;5.88;;;10.50;99.90;;;;;;4916168;29;20104;-75
2021/10/17 07:30:22;;;;;;;10.75;6.63;;;10.50;99.90;;;;;;4915457;29;20032;-77
2021/10/17 07:32:48;;;;;;;11.98;5.57;;;10.40;99.90;;;;;;4917541;29;20454;-76
2021/10/17 07:35:14;;;;;;;6.93;4.95;;;10.50;99.90;;;;;;4917762;29;20540;-78
2021/10/17 07:37:39;;;;;;;10.57;4.85;;;10.50;99.90;;;;;;4935271;29;20376;-78
2021/10/17 07:40:06;;;;;;;8.98;5.35;;;10.50;99.90;;;;;;4929928;29;20076;-77
2021/10/17 07:42:32;;;;;;;7.13;5.78;;;10.60;99.90;;;;;;4915267;29;20400;-86
2021/10/17 07:44:58;;;;;;;8.73;5.13;;;10.60;99.90;;;;;;4917129;29;20080;-78
2021/10/17 07:47:24;;;;;;;7.10;5.35;;;10.70;99.90;;;;;;4917198;29;20107;-76
2021/10/17 07:49:50;;;;;;;9.73;5.65;;;10.70;99.90;;;;;;4914816;29;20043;-77
2021/10/17 07:52:15;;;;;;;6.65;4.85;;;10.80;99.90;;;;;;4914498;29;20489;-76
2021/10/17 07:54:41;;;;;;;10.05;5.93;;;10.80;99.90;;;;;;4918277;29;20028;-76
2021/10/17 07:57:07;;;;;;;9.95;5.75;;;10.90;99.90;;;;;;4917683;29;20102;-78
2021/10/17 07:59:33;;;;;;;6.72;5.35;;;10.90;99.90;;;;;;4914479;29;20028;-78
2021/10/17 08:01:59;;;;;;;6.90;5.30;;;10.90;99.90;;;;;;4916451;29;20429;-76
2021/10/17 08:04:25;;;;;;;10.18;5.20;;;10.90;99.90;;;;;;4916382;29;20397;-75
2021/10/17 08:06:51;;;;;;;9.02;5.57;;;10.90;99.90;;;;;;4930833;29;20064;-77
2021/10/17 08:09:17;;;;;;;8.25;5.97;;;11.00;99.90;;;;;;4916562;29;20024;-79
2021/10/17 08:11:43;;;;;;;10.98;5.80;;;11.00;99.90;;;;;;4913162;29;20575;-82
2021/10/17 08:14:09;;;;;;;8.60;6.45;;;11.10;99.90;;;;;;4912720;29;20100;-80
2021/10/17 08:16:35;;;;;;;10.43;5.70;;;11.10;99.90;;;;;;4915630;29;20024;-79
2021/10/17 08:19:03;;;;;;;7.32;5.70;;;11.20;99.90;;;;;;4916391;29;20449;-80
2021/10/17 08:21:30;;;;;;;9.00;5.28;;;11.20;99.90;;;;;;4916049;29;20516;-78
2021/10/17 08:23:56;;;;;;;7.97;4.95;;;11.30;99.90;;;;;;4915004;29;20024;-78
2021/10/17 08:26:21;;;;;;;7.63;5.45;;;11.40;99.90;;;;;;4914374;29;20099;-80
2021/10/17 08:28:47;;;;;;;11.90;5.63;;;11.40;99.90;;;;;;4923911;29;20091;-78
2021/10/17 08:31:12;;;;;;;7.60;4.97;;;11.50;99.90;;;;;;4916410;29;20862;-74
2021/10/17 08:33:38;;;;;;;8.73;5.95;;;11.50;99.90;;;;;;4913984;29;20433;-74
2021/10/17 08:36:04;;;;;;;8.82;5.82;;;11.60;99.90;;;;;;4918207;29;20404;-75
2021/10/17 08:38:30;;;;;;;6.47;5.82;;;11.60;99.90;;;;;;4914775;29;20473;-81
2021/10/17 08:40:56;;;;;;;8.32;5.90;;;11.70;99.90;;;;;;4914234;29;20056;-82
2021/10/17 08:43:22;;;;;;;8.38;5.65;;;11.70;99.90;;;;;;4916484;29;20067;-78
2021/10/17 08:45:48;;;;;;;8.50;6.05;;;11.70;99.90;;;;;;4915130;29;20556;-79
2021/10/17 08:48:15;;;;;;;10.65;5.65;;;11.70;99.90;;;;;;4914326;29;20060;-80
2021/10/17 08:50:42;;;;;;;12.50;6.20;;;11.70;99.90;;;;;;4916303;29;20028;-80
2021/10/17 08:53:08;;;;;;;11.07;6.35;;;11.70;99.90;;;;;;4913781;29;20024;-79
2021/10/17 08:55:34;;;;;;;10.02;5.88;;;11.70;99.90;;;;;;4914752;29;20036;-78
2021/10/17 08:57:59;;;;;;;9.23;5.72;;;11.80;99.90;;;;;;4915571;29;20024;-79
2021/10/17 09:00:31;;;;;;;8.98;5.78;;;11.80;99.90;;;;;;4916033;29;20028;-77
2021/10/17 09:02:58;;;;;;;10.25;5.55;;;11.80;99.90;;;;;;4915105;29;20110;-80
2021/10/17 09:05:35;;;;;;;9.95;5.70;;;11.80;99.90;;;;;;4930518;29;20028;-79
2021/10/17 09:08:01;;;;;;;9.35;6.40;;;11.90;99.90;;;;;;4915318;29;20811;-79
2021/10/17 09:10:27;;;;;;;10.05;5.90;;;12.00;99.90;;;;;;4914428;29;20067;-77
2021/10/17 09:12:53;;;;;;;11.18;5.68;;;12.00;99.90;;;;;;4912569;29;20043;-77
2021/10/17 09:15:28;;;;;;;7.93;6.28;;;12.10;99.90;;;;;;4914590;29;20363;-78
2021/10/17 09:18:23;;;;;;;7.40;5.32;;;12.10;99.90;;;;;;4914079;29;20045;-82
2021/10/17 09:20:49;;;;;;;11.18;5.53;;;12.20;99.90;;;;;;4915194;29;20114;-87
2021/10/17 09:23:15;;;;;;;10.00;5.38;;;12.20;99.90;;;;;;4915029;29;20135;-83
2021/10/17 09:25:41;;;;;;;6.68;4.90;;;12.30;99.90;;;;;;4913592;29;20028;-78
2021/10/17 09:28:17;;;;;;;8.85;4.93;;;12.30;99.90;;;;;;4914347;29;20068;-83
2021/10/17 09:30:55;;;;;;;8.90;4.38;;;12.40;99.90;;;;;;4916027;29;20123;-82
2021/10/17 09:33:21;;;;;;;8.35;5.15;;;12.40;99.90;;;;;;4916553;29;20114;-93
2021/10/17 09:35:46;;;;;;;6.65;4.50;;;12.40;99.90;;;;;;4915158;29;20070;-83
2021/10/17 09:38:15;;;;;;;8.88;5.63;;;12.50;99.90;;;;;;4915245;29;20028;-82
2021/10/17 09:40:42;;;;;;;6.80;5.35;;;12.40;99.90;;;;;;4916455;29;20048;-83
2021/10/17 09:43:27;;;;;;;10.07;5.63;;;12.40;99.90;;;;;;4914402;29;20459;-83
2021/10/17 09:46:10;;;;;;;8.45;5.60;;;12.50;99.90;;;;;;4915783;29;20111;-83
2021/10/17 09:48:36;;;;;;;8.23;5.22;;;12.50;99.90;;;;;;4915002;29;20024;-84
2021/10/17 09:51:03;;;;;;;10.48;5.40;;;12.50;99.90;;;;;;4914715;29;20492;-83
2021/10/17 09:53:43;;;;;;;9.45;5.65;;;12.50;99.90;;;;;;4914613;29;20378;-82
2021/10/17 09:56:09;;;;;;;7.75;5.75;;;12.60;99.90;;;;;;4916504;29;20446;-83
2021/10/17 09:58:35;;;;;;;9.82;5.55;;;12.70;99.90;;;;;;4915434;29;20035;-83
2021/10/17 10:01:01;;;;;;;7.93;5.65;;;12.80;99.90;;;;;;4916278;29;20389;-82
2021/10/17 10:03:27;;;;;;;9.70;5.00;;;12.90;99.90;;;;;;4915899;29;20433;-84
2021/10/17 10:05:57;;;;;;;10.32;5.30;;;12.90;99.90;;;;;;4915772;29;20028;-84
2021/10/17 10:08:25;;;;;;;9.32;5.68;;;13.00;99.90;;;;;;4916021;29;20090;-83
2021/10/17 10:10:51;;;;;;;9.52;5.50;;;13.10;99.90;;;;;;4915302;29;20130;-82
2021/10/17 10:13:23;;;;;;;9.82;6.32;;;13.10;99.90;;;;;;4915500;29;20510;-82
2021/10/17 10:15:50;;;;;;;11.73;6.35;;;13.20;99.90;;;;;;4914836;29;20024;-82
2021/10/17 10:18:17;;;;;;;9.68;5.57;;;13.30;99.90;;;;;;4915459;29;20020;-82
2021/10/17 10:20:42;;;;;;;8.77;5.68;;;13.40;99.90;;;;;;4915490;29;20032;-81
2021/10/17 10:23:10;;;;;;;6.13;5.25;;;13.40;99.90;;;;;;4915767;29;20036;-82
2021/10/17 10:25:38;;;;;;;10.43;5.53;;;13.50;99.90;;;;;;4915151;29;20036;-81
2021/10/17 10:28:09;;;;;;;7.50;5.93;;;13.50;99.90;;;;;;4914799;29;20028;-82
2021/10/17 10:30:35;;;;;;;11.70;6.38;;;13.60;99.90;;;;;;4930326;29;20103;-82
2021/10/17 10:33:09;;;;;;;10.45;6.20;;;13.60;99.90;;;;;;4914786;29;20025;-83
2021/10/17 10:35:35;;;;;;;12.57;6.20;;;13.60;99.90;;;;;;4914337;29;20025;-83
2021/10/17 10:38:01;;;;;;;8.75;5.97;;;13.50;99.90;;;;;;4915001;29;20027;-83
2021/10/17 10:40:27;;;;;;;9.10;6.35;;;13.50;99.90;;;;;;4913720;29;20362;-82
2021/10/17 10:42:53;;;;;;;8.20;6.05;;;13.40;99.90;;;;;;4914620;29;20139;-82
2021/10/17 10:45:35;;;;;;;9.73;5.97;;;13.40;99.90;;;;;;4914237;29;20028;-82
2021/10/17 10:48:10;;;;;;;10.80;6.28;;;13.40;99.90;;;;;;4914055;29;20032;-81
2021/10/17 10:51:07;;;;;;;8.57;6.03;;;13.40;99.90;;;;;;4914486;29;20028;-83
2021/10/17 10:53:47;;;;;;;8.65;6.35;;;13.40;99.90;;;;;;4909349;29;20068;-84
2021/10/17 10:56:41;;;;;;;10.23;5.93;;;13.30;99.90;;;;;;4914453;29;20036;-83
2021/10/17 10:59:08;;;;;;;8.40;5.60;;;13.30;99.90;;;;;;4914484;29;20039;-82
2021/10/17 11:01:55;;;;;;;8.50;5.85;;;13.30;99.90;;;;;;4929439;29;20021;-83
2021/10/17 11:04:41;;;;;;;9.38;5.78;;;13.30;99.90;;;;;;4915691;29;20028;-83
2021/10/17 11:07:35;;;;;;;10.55;6.80;;;13.40;99.90;;;;;;4914350;29;20465;-82
2021/10/17 11:10:23;;;;;;;8.00;6.03;;;13.50;99.90;;;;;;4914637;29;20033;-83
2021/10/17 11:12:59;;;;;;;9.38;6.50;;;13.60;99.90;;;;;;4914017;29;20024;-81
2021/10/17 11:15:27;;;;;;;11.70;6.30;;;13.70;99.90;;;;;;4913294;29;20043;-82
2021/10/17 11:17:54;;;;;;;14.63;6.60;;;13.80;99.90;;;;;;4914675;29;20028;-81
2021/10/17 11:20:22;;;;;;;8.07;6.18;;;13.80;99.90;;;;;;4914251;29;20059;-81
2021/10/17 11:22:49;;;;;;;10.63;6.10;;;13.80;99.90;;;;;;4913043;29;20048;-81
2021/10/17 11:25:19;;;;;;;9.60;5.90;;;13.70;99.90;;;;;;4914354;29;20023;-82
2021/10/17 11:27:46;;;;;;;10.68;6.13;;;13.70;99.90;;;;;;4915282;29;20032;-82
2021/10/17 11:30:42;;;;;;;12.93;6.10;;;13.60;99.90;;;;;;4913126;29;20068;-82
2021/10/17 11:33:20;;;;;;;9.93;6.25;;;13.60;99.90;;;;;;4911161;29;20505;-82
2021/10/17 11:35:47;;;;;;;10.90;6.82;;;13.50;99.90;;;;;;4913326;29;20477;-83
2021/10/17 11:38:15;;;;;;;8.40;6.38;;;13.50;99.90;;;;;;4914098;29;20425;-82
2021/10/17 11:40:41;;;;;;;13.38;6.00;;;13.40;99.90;;;;;;4914704;29;20032;-83
2021/10/17 11:43:07;;;;;;;7.25;4.70;;;13.40;99.90;;;;;;4929089;29;20036;-83
2021/10/17 11:45:40;;;;;;;12.05;6.20;;;13.30;99.90;;;;;;4914641;29;20062;-82
2021/10/17 11:48:08;;;;;;;8.15;5.32;;;13.30;99.90;;;;;;4917490;29;20490;-82
2021/10/17 11:50:37;;;;;;;9.63;6.25;;;13.30;99.90;;;;;;4916459;29;20024;-82
2021/10/17 11:53:13;;;;;;;8.35;5.85;;;13.30;99.90;;;;;;4918579;29;20076;-83
2021/10/17 11:55:45;;;;;;;10.35;5.57;;;13.30;99.90;;;;;;4917023;29;20752;-83
2021/10/17 11:58:22;;;;;;;6.38;4.85;;;13.30;99.90;;;;;;4916410;29;20035;-83
2021/10/17 12:00:50;;;;;;;6.63;4.57;;;13.30;99.90;;;;;;4917249;29;20020;-82
2021/10/17 12:03:17;;;;;;;6.03;4.30;;;13.30;99.90;;;;;;4917248;29;20505;-83
2021/10/17 12:05:46;;;;;;;8.07;4.50;;;13.30;99.90;;;;;;4915300;29;20021;-82
2021/10/17 12:08:27;;;;;;;5.43;4.40;;;13.30;99.90;;;;;;4915280;29;20079;-83
2021/10/17 12:11:03;;;;;;;6.50;4.60;;;13.40;99.90;;;;;;4906320;29;20025;-80
2021/10/17 12:13:40;;;;;;;6.93;4.53;;;13.40;99.90;;;;;;4912239;29;20142;-81
2021/10/17 12:16:08;;;;;;;7.30;5.00;;;13.40;99.90;;;;;;4940642;29;20118;-83
2021/10/17 12:18:35;;;;;;;6.95;4.35;;;13.50;99.90;;;;;;4920952;29;20095;-79
2021/10/17 12:21:01;;;;;;;8.55;4.80;;;13.60;99.90;;;;;;4936241;29;20028;-79
2021/10/17 12:23:27;;;;;;;8.10;4.43;;;13.70;99.90;;;;;;4951419;28;20031;-78
2021/10/17 12:25:53;;;;;;;7.22;4.70;;;13.80;99.90;;;;;;4922430;29;20028;-80
2021/10/17 12:28:20;;;;;;;9.77;4.60;;;13.80;99.90;;;;;;4915438;29;20473;-82
2021/10/17 12:30:51;;;;;;;7.60;4.53;;;13.90;99.90;;;;;;4920706;29;20016;-85
2021/10/17 12:33:35;;;;;;;6.93;4.45;;;13.90;99.90;;;;;;4925027;29;20079;-83
2021/10/17 12:36:02;;;;;;;10.00;4.93;;;14.00;99.90;;;;;;4917710;29;20024;-80
2021/10/17 12:38:33;;;;;;;6.13;4.55;;;14.00;99.90;;;;;;4915626;29;20032;-83
2021/10/17 12:41:02;;;;;;;7.95;5.25;;;14.10;99.90;;;;;;4916827;29;20032;-83
2021/10/17 12:43:34;;;;;;;6.28;4.18;;;14.10;99.90;;;;;;4917107;29;20370;-80
2021/10/17 12:46:16;;;;;;;6.70;4.95;;;14.20;99.90;;;;;;4915796;29;20036;-81